Terminal Aerodrome Forecast
Issued by NWS

Home | Current Version | Previous Version | Text Only | Print | Product List | Glossary On
Versions: 1 2 3 4 5 6 7 8 9 10 11 12 13 14
000
FTAK31 PAJN 310500
TAFAJN
TAF
PAJN 310520Z 3106/0106 VRB03KT P6SM VCSH SCT040 BKN080
     FM310900 00000KT P6SM BCFG SCT002 BKN100
     FM311800 25005KT P6SM SCT150=

USA.gov is the U.S. government's official web portal to all federal, state and local government web resources and services.